createdAt,value
2022-12-20T00:01:27.790Z,98965.25
2022-12-20T00:03:56.696Z,98958.16
2022-12-20T00:06:24.460Z,98976.25
2022-12-20T00:08:55.995Z,98973.94
2022-12-20T00:11:23.571Z,98981.03
2022-12-20T00:13:50.797Z,98984.22
2022-12-20T00:16:20.194Z,98974.03
2022-12-20T00:18:47.641Z,98979.16
2022-12-20T00:21:15.220Z,98978.78
2022-12-20T00:23:42.322Z,98966.25
2022-12-20T00:26:08.900Z,98972.91
2022-12-20T00:28:36.858Z,98971.31
2022-12-20T00:31:04.788Z,98976.81
2022-12-20T00:33:32.345Z,98971.75
2022-12-20T00:36:00.694Z,98964.38
2022-12-20T00:38:27.916Z,98968.41
2022-12-20T00:41:06.735Z,98968.13
2022-12-20T00:43:34.271Z,98968.13
2022-12-20T00:46:01.910Z,98963.03
2022-12-20T00:48:30.603Z,98963.88
2022-12-20T00:51:05.049Z,98971.41
2022-12-20T00:53:32.270Z,98966.38
2022-12-20T00:55:59.153Z,98962.84
2022-12-20T00:58:26.942Z,98958.56
2022-12-20T01:00:56.795Z,98951.19
2022-12-20T01:03:25.304Z,98967.78
2022-12-20T01:05:54.430Z,98973.28
2022-12-20T01:08:22.060Z,98971.69
2022-12-20T01:11:17.883Z,98967.41
2022-12-20T01:13:47.344Z,98969.34
2022-12-20T01:16:15.829Z,98981.16
2022-12-20T01:18:42.543Z,98962.28
2022-12-20T01:21:11.424Z,98973.22
2022-12-20T01:23:38.951Z,98975.53
2022-12-20T01:26:09.378Z,98973.59
2022-12-20T01:28:36.660Z,98973.22
2022-12-20T01:31:07.995Z,98966.19
2022-12-20T01:33:35.752Z,98965.44
2022-12-20T01:36:05.865Z,98966.25
2022-12-20T01:38:33.474Z,98972.09
2022-12-20T01:41:00.351Z,98968.50
2022-12-20T01:43:52.284Z,98968.44
2022-12-20T01:46:21.391Z,98973.88
2022-12-20T01:48:56.478Z,98972.28
2022-12-20T01:51:24.651Z,98970.69
2022-12-20T01:53:57.440Z,98969.13
2022-12-20T01:56:24.359Z,98964.75
2022-12-20T01:58:53.241Z,98973.03
2022-12-20T02:01:22.857Z,98967.94
2022-12-20T02:03:51.349Z,98972.28
2022-12-20T02:06:20.753Z,98973.88
2022-12-20T02:08:51.104Z,98980.13
2022-12-20T02:11:29.510Z,98976.16
2022-12-20T02:14:35.352Z,98971.41
2022-12-20T02:17:29.690Z,98976.91
2022-12-20T02:20:53.545Z,98968.63
2022-12-20T02:23:46.255Z,98976.88
2022-12-20T02:26:12.775Z,98972.91
2022-12-20T02:29:16.723Z,98980.69
2022-12-20T02:31:56.225Z,98975.16
2022-12-20T02:34:27.807Z,98982.94
2022-12-20T02:36:54.578Z,98986.81
2022-12-20T02:39:23.802Z,98989.13
2022-12-20T02:41:57.461Z,98987.09
2022-12-20T02:44:47.021Z,98988.25
2022-12-20T02:47:19.915Z,98983.53
2022-12-20T02:49:49.736Z,98996.16
2022-12-20T02:52:21.254Z,98986.75
2022-12-20T02:54:48.740Z,98986.31
2022-12-20T02:57:21.517Z,98989.78
2022-12-20T03:00:10.872Z,98985.78
2022-12-20T03:02:57.350Z,98995.22
2022-12-20T03:05:27.281Z,98984.22
2022-12-20T03:07:55.336Z,98982.63
2022-12-20T03:10:23.689Z,98987.69
2022-12-20T03:12:50.459Z,98987.28
2022-12-20T03:15:17.182Z,98983.28
2022-12-20T03:17:43.878Z,98982.84
2022-12-20T03:20:11.440Z,98980.84
2022-12-20T03:22:39.082Z,98984.72
2022-12-20T03:25:06.436Z,98981.19
2022-12-20T03:27:33.650Z,98982.31
2022-12-20T03:30:03.704Z,98979.16
2022-12-20T03:32:30.487Z,98984.22
2022-12-20T03:34:57.197Z,98992.41
2022-12-20T03:37:24.091Z,98990.44
2022-12-20T03:39:50.809Z,98993.19
2022-12-20T03:42:18.793Z,98995.94
2022-12-20T03:44:45.589Z,98989.28
2022-12-20T03:47:12.341Z,99002.63
2022-12-20T03:49:39.024Z,98999.41
2022-12-20T03:52:05.990Z,99010.41
2022-12-20T03:54:32.813Z,99008.84
2022-12-20T03:56:59.414Z,98999.78
2022-12-20T03:59:26.134Z,99015.09
2022-12-20T04:01:53.102Z,99013.97
2022-12-20T04:04:19.878Z,99008.47
2022-12-20T04:06:46.592Z,99010.41
2022-12-20T04:09:13.212Z,99019.84
2022-12-20T04:11:39.965Z,99012.72
2022-12-20T04:14:06.884Z,99013.88
2022-12-20T04:16:34.242Z,99013.44
2022-12-20T04:19:01.095Z,99018.94
2022-12-20T04:21:34.417Z,99012.22
2022-12-20T04:24:03.184Z,99022.41
2022-12-20T04:26:30.140Z,99025.97
2022-12-20T04:28:56.852Z,99026.69
2022-12-20T04:31:24.540Z,99028.19
2022-12-20T04:33:51.841Z,99034.06
2022-12-20T04:36:18.703Z,99026.63
2022-12-20T04:38:45.410Z,99026.63
2022-12-20T04:41:22.477Z,99030.50
2022-12-20T04:43:55.672Z,99036.00
2022-12-20T04:46:23.871Z,99037.97
2022-12-20T04:48:59.368Z,99039.91
2022-12-20T04:51:27.922Z,99036.38
2022-12-20T04:53:55.153Z,99036.72
2022-12-20T04:56:24.892Z,99037.91
2022-12-20T04:58:54.025Z,99045.34
2022-12-20T05:01:21.392Z,99041.44
2022-12-20T05:03:49.524Z,99051.66
2022-12-20T05:06:17.269Z,99046.50
2022-12-20T05:08:44.029Z,99066.16
2022-12-20T05:11:11.381Z,99059.44
2022-12-20T05:13:38.112Z,99056.69
2022-12-20T05:16:05.310Z,99061.03
2022-12-20T05:18:32.527Z,99062.66
2022-12-20T05:21:19.281Z,99055.63
2022-12-20T05:24:05.752Z,99058.09
2022-12-20T05:26:36.531Z,99065.25
2022-12-20T05:29:04.355Z,99074.81
2022-12-20T05:31:31.905Z,99073.31
2022-12-20T05:33:58.827Z,99064.69
2022-12-20T05:36:25.493Z,99064.69
2022-12-20T05:38:52.526Z,99067.00
2022-12-20T05:41:21.260Z,99065.88
2022-12-20T05:43:47.989Z,99073.75
2022-12-20T05:46:14.623Z,99075.69
2022-12-20T05:48:41.371Z,99076.41
2022-12-20T05:51:08.235Z,99069.31
2022-12-20T05:53:34.881Z,99086.53
2022-12-20T05:56:01.739Z,99081.75
2022-12-20T05:58:28.932Z,99096.22
2022-12-20T06:00:56.342Z,99089.84
2022-12-20T06:03:23.339Z,99098.09
2022-12-20T06:05:50.080Z,99076.09
2022-12-20T06:08:16.785Z,99086.63
2022-12-20T06:10:43.703Z,99093.66
2022-12-20T06:13:11.256Z,99091.97
2022-12-20T06:15:38.575Z,99099.38
2022-12-20T06:18:06.312Z,99094.13
2022-12-20T06:20:34.612Z,99096.09
2022-12-20T06:23:02.171Z,99093.69
2022-12-20T06:25:28.887Z,99085.00
2022-12-20T06:28:00.570Z,99098.31
2022-12-20T06:30:33.438Z,99086.09
2022-12-20T06:33:02.629Z,99099.00
2022-12-20T06:35:30.339Z,99097.78
2022-12-20T06:37:57.131Z,99100.88
2022-12-20T06:40:23.947Z,99100.44
2022-12-20T06:42:50.578Z,99109.03
2022-12-20T06:45:17.342Z,99112.13
2022-12-20T06:47:44.709Z,99102.31
2022-12-20T06:50:11.725Z,99110.09
2022-12-20T06:52:38.408Z,99112.84
2022-12-20T06:55:05.446Z,99106.47
2022-12-20T06:57:33.199Z,99107.97
2022-12-20T07:00:00.203Z,99120.47
2022-12-20T07:02:27.873Z,99123.22
2022-12-20T07:04:55.301Z,99124.34
2022-12-20T07:07:22.100Z,99128.28
2022-12-20T07:09:49.013Z,99123.50
2022-12-20T07:12:15.803Z,99123.81
2022-12-20T07:14:42.558Z,99124.19
2022-12-20T07:17:09.660Z,99128.00
2022-12-20T07:19:36.598Z,99132.69
2022-12-20T07:22:04.580Z,99128.00
2022-12-20T07:24:31.924Z,99128.44
2022-12-20T07:26:59.189Z,99139.06
2022-12-20T07:29:25.916Z,99130.38
2022-12-20T07:31:53.163Z,99145.72
2022-12-20T07:34:20.127Z,99140.22
2022-12-20T07:36:47.120Z,99144.56
2022-12-20T07:39:13.950Z,99147.66
2022-12-20T07:41:40.619Z,99146.88
2022-12-20T07:44:07.445Z,99150.75
2022-12-20T07:46:34.773Z,99160.16
2022-12-20T07:49:01.698Z,99162.47
2022-12-20T07:51:31.637Z,99168.63
2022-12-20T07:54:03.229Z,99169.44
2022-12-20T07:56:36.054Z,99172.94
2022-12-20T07:59:10.696Z,99174.13
2022-12-20T08:01:38.057Z,99177.19
2022-12-20T08:04:11.342Z,99182.25
2022-12-20T08:06:39.280Z,99174.72
2022-12-20T08:09:07.268Z,99183.31
2022-12-20T08:11:37.104Z,99182.50
2022-12-20T08:14:07.032Z,99196.59
2022-12-20T08:16:34.308Z,99186.75
2022-12-20T08:19:01.148Z,99181.63
2022-12-20T08:21:29.231Z,99197.28
2022-12-20T08:23:56.727Z,99206.66
2022-12-20T08:26:23.503Z,99206.66
2022-12-20T08:28:50.258Z,99213.31
2022-12-20T08:31:17.046Z,99221.53
2022-12-20T08:33:43.854Z,99229.78
2022-12-20T08:36:12.651Z,99224.28
2022-12-20T08:38:39.969Z,99226.59
2022-12-20T08:41:11.079Z,99218.00
2022-12-20T08:43:38.691Z,99220.75
2022-12-20T08:46:07.160Z,99226.59
2022-12-20T08:48:34.197Z,99229.31
2022-12-20T08:51:03.812Z,99228.53
2022-12-20T08:53:31.280Z,99233.25
2022-12-20T08:56:05.443Z,99235.50
2022-12-20T08:58:32.443Z,99241.00
2022-12-20T09:01:06.612Z,99239.44
2022-12-20T09:03:35.291Z,99248.09
2022-12-20T09:06:06.717Z,99244.91
2022-12-20T09:08:35.143Z,99234.75
2022-12-20T09:11:06.896Z,99245.34
2022-12-20T09:13:39.508Z,99246.50
2022-12-20T09:16:11.246Z,99251.22
2022-12-20T09:18:37.900Z,99254.41
2022-12-20T09:21:06.657Z,99250.84
2022-12-20T09:23:35.253Z,99260.69
2022-12-20T09:26:07.715Z,99250.50
2022-12-20T09:28:34.691Z,99255.19
2022-12-20T09:31:03.296Z,99253.59
2022-12-20T09:33:31.848Z,99265.81
2022-12-20T09:35:59.496Z,99266.19
2022-12-20T09:38:26.915Z,99267.31
2022-12-20T09:40:56.979Z,99265.03
2022-12-20T09:43:24.327Z,99274.06
2022-12-20T09:45:53.875Z,99278.75
2022-12-20T09:48:25.532Z,99280.34
2022-12-20T09:51:10.250Z,99285.84
2022-12-20T09:53:52.184Z,99285.84
2022-12-20T09:56:30.248Z,99290.66
2022-12-20T09:59:12.790Z,99302.88
2022-12-20T10:01:43.290Z,99301.72
2022-12-20T10:04:39.982Z,99318.19
2022-12-20T10:07:24.912Z,99314.75
2022-12-20T10:10:14.604Z,99320.00
2022-12-20T10:12:55.267Z,99310.84
2022-12-20T10:15:41.328Z,99316.91
2022-12-20T10:18:30.338Z,99314.16
2022-12-20T10:21:36.897Z,99325.13
2022-12-20T10:24:18.427Z,99331.00
2022-12-20T10:26:49.149Z,99329.81
2022-12-20T10:29:15.970Z,99329.13
2022-12-20T10:31:43.115Z,99322.13
2022-12-20T10:34:09.870Z,99326.94
2022-12-20T10:36:37.573Z,99330.13
2022-12-20T10:39:07.886Z,99327.84
2022-12-20T10:41:40.441Z,99324.06
2022-12-20T10:44:30.341Z,99331.59
2022-12-20T10:46:59.584Z,99335.59
2022-12-20T10:49:33.170Z,99325.84
2022-12-20T10:52:08.760Z,99332.59
2022-12-20T10:54:43.172Z,99333.03
2022-12-20T10:57:30.105Z,99331.91
2022-12-20T11:00:00.310Z,99343.31
2022-12-20T11:02:40.723Z,99331.97
2022-12-20T11:05:11.384Z,99335.53
2022-12-20T11:08:17.302Z,99335.19
2022-12-20T11:10:38.661Z,99334.81
2022-12-20T11:13:06.375Z,99336.44
2022-12-20T11:15:35.274Z,99335.75
2022-12-20T11:18:24.299Z,99342.13
2022-12-20T11:21:11.072Z,99335.91
2022-12-20T11:24:06.440Z,99338.78
2022-12-20T11:27:15.492Z,99342.28
2022-12-20T11:30:04.127Z,99326.28
2022-12-20T11:32:54.974Z,99317.28
2022-12-20T11:35:40.486Z,99320.50
2022-12-20T11:38:10.324Z,99331.59
2022-12-20T11:41:23.759Z,99318.31
2022-12-20T11:44:26.735Z,99324.56
2022-12-20T11:47:22.165Z,99334.44
2022-12-20T11:50:20.565Z,99329.75
2022-12-20T11:52:56.239Z,99312.88
2022-12-20T11:55:29.896Z,99314.50
2022-12-20T11:58:18.954Z,99311.38
2022-12-20T12:00:54.352Z,99306.69
2022-12-20T12:03:31.452Z,99316.97
2022-12-20T12:06:16.489Z,99313.84
2022-12-20T12:08:50.475Z,99304.91
2022-12-20T12:14:35.777Z,99308.56
2022-12-20T12:17:10.465Z,99305.44
2022-12-20T12:19:43.421Z,99299.94
2022-12-20T12:22:16.867Z,99297.63
2022-12-20T12:24:53.111Z,99307.47
2022-12-20T12:27:25.549Z,99298.53
2022-12-20T12:29:54.530Z,99290.72
2022-12-20T12:32:47.104Z,99298.63
2022-12-20T12:35:31.918Z,99290.81
2022-12-20T12:38:26.613Z,99312.81
2022-12-20T12:41:05.457Z,99306.50
2022-12-20T12:43:41.012Z,99312.81
2022-12-20T12:46:14.996Z,99318.31
2022-12-20T12:48:56.785Z,99313.63
2022-12-20T12:51:31.639Z,99315.19
2022-12-20T12:54:04.452Z,99316.81
2022-12-20T12:56:46.278Z,99308.88
2022-12-20T12:59:13.434Z,99316.81
2022-12-20T13:01:54.538Z,99306.22
2022-12-20T13:04:21.354Z,99307.03
2022-12-20T13:06:48.022Z,99324.34
2022-12-20T13:09:22.763Z,99312.53
2022-12-20T13:11:55.563Z,99318.47
2022-12-20T13:14:29.462Z,99308.28
2022-12-20T13:17:14.677Z,99311.84
2022-12-20T13:19:53.638Z,99299.66
2022-12-20T13:22:22.846Z,99316.63
2022-12-20T13:24:58.108Z,99304.88
2022-12-20T13:27:27.169Z,99313.94
2022-12-20T13:29:59.262Z,99306.16
2022-12-20T13:33:17.370Z,99312.91
2022-12-20T13:35:58.981Z,99321.22
2022-12-20T13:38:54.654Z,99310.31
2022-12-20T13:41:35.791Z,99323.34
2022-12-20T13:44:14.998Z,99311.63
2022-12-20T13:46:47.477Z,99305.03
2022-12-20T13:49:38.684Z,99305.84
2022-12-20T13:52:11.401Z,99305.47
2022-12-20T13:54:44.635Z,99327.94
2022-12-20T13:57:41.853Z,99313.84
2022-12-20T14:00:18.014Z,99313.56
2022-12-20T14:02:45.588Z,99306.53
2022-12-20T14:05:26.703Z,99305.72
2022-12-20T14:07:58.733Z,99308.13
2022-12-20T14:10:28.833Z,99299.88
2022-12-20T14:12:56.791Z,99309.66
2022-12-20T14:15:36.114Z,99320.56
2022-12-20T14:18:18.123Z,99316.59
2022-12-20T14:20:47.295Z,99326.34
2022-12-20T14:23:22.116Z,99322.72
2022-12-20T14:25:55.143Z,99320.22
2022-12-20T14:28:31.197Z,99311.44
2022-12-20T14:31:01.232Z,99316.41
2022-12-20T14:33:38.096Z,99313.13
2022-12-20T14:36:16.886Z,99307.13
2022-12-20T14:38:46.921Z,99316.91
2022-12-20T14:41:36.151Z,99303.38
2022-12-20T14:44:21.808Z,99324.16
2022-12-20T14:46:58.973Z,99324.09
2022-12-20T14:49:31.834Z,99332.25
2022-12-20T14:52:20.756Z,99326.31
2022-12-20T14:55:08.364Z,99340.75
2022-12-20T14:57:36.010Z,99336.75
2022-12-20T15:00:14.718Z,99342.97
2022-12-20T15:02:42.138Z,99351.13
2022-12-20T15:05:33.970Z,99356.97
2022-12-20T15:08:24.332Z,99349.00
2022-12-20T15:10:53.966Z,99354.06
2022-12-20T15:13:25.787Z,99362.19
2022-12-20T15:15:52.715Z,99346.50
2022-12-20T15:18:21.520Z,99351.56
2022-12-20T15:21:05.364Z,99358.09
2022-12-20T15:23:33.115Z,99369.47
2022-12-20T15:25:59.901Z,99378.41
2022-12-20T15:28:27.171Z,99363.41
2022-12-20T15:30:55.578Z,99368.81
2022-12-20T15:33:29.090Z,99370.31
2022-12-20T15:35:56.580Z,99364.38
2022-12-20T15:38:54.858Z,99352.94
2022-12-20T15:41:29.151Z,99359.13
2022-12-20T15:43:59.864Z,99350.44
2022-12-20T15:46:27.388Z,99359.81
2022-12-20T15:48:54.434Z,99372.31
2022-12-20T15:51:31.564Z,99377.81
2022-12-20T15:53:59.261Z,99370.81
2022-12-20T15:56:27.274Z,99367.63
2022-12-20T15:58:54.593Z,99372.31
2022-12-20T16:01:29.615Z,99386.41
2022-12-20T16:03:57.838Z,99378.38
2022-12-20T16:06:24.583Z,99384.13
2022-12-20T16:08:51.438Z,99385.88
2022-12-20T16:11:29.275Z,99386.94
2022-12-20T16:13:57.915Z,99383.25
2022-12-20T16:16:35.774Z,99387.19
2022-12-20T16:19:06.493Z,99398.84
2022-12-20T16:21:36.192Z,99384.69
2022-12-20T16:24:03.572Z,99397.94
2022-12-20T16:26:30.386Z,99404.91
2022-12-20T16:28:57.293Z,99400.13
2022-12-20T16:31:33.165Z,99401.59
2022-12-20T16:34:05.752Z,99396.81
2022-12-20T16:36:32.600Z,99402.28
2022-12-20T16:38:59.678Z,99398.28
2022-12-20T16:41:30.226Z,99397.81
2022-12-20T16:43:59.428Z,99397.38
2022-12-20T16:46:29.176Z,99393.03
2022-12-20T16:48:58.684Z,99388.69
2022-12-20T16:51:28.426Z,99400.47
2022-12-20T16:54:19.506Z,99398.88
2022-12-20T16:56:47.730Z,99397.97
2022-12-20T16:59:23.232Z,99408.47
2022-12-20T17:01:53.219Z,99401.72
2022-12-20T17:04:22.104Z,99397.72
2022-12-20T17:06:50.407Z,99394.53
2022-12-20T17:12:05.186Z,99392.47
2022-12-20T17:14:31.880Z,99411.69
2022-12-20T17:16:59.834Z,99405.38
2022-12-20T17:19:26.623Z,99415.59
2022-12-20T17:24:37.914Z,99407.69
2022-12-20T17:27:04.942Z,99405.75
2022-12-20T17:29:32.708Z,99404.94
2022-12-20T17:31:59.539Z,99406.88
2022-12-20T17:34:28.678Z,99401.75
2022-12-20T17:36:57.320Z,99401.31
2022-12-20T17:39:25.554Z,99400.50
2022-12-20T17:41:54.092Z,99399.22
2022-12-20T17:44:26.304Z,99401.19
2022-12-20T17:46:53.783Z,99398.44
2022-12-20T17:49:21.246Z,99405.84
2022-12-20T17:51:48.006Z,99419.13
2022-12-20T17:54:20.865Z,99419.81
2022-12-20T17:56:48.184Z,99415.13
2022-12-20T17:59:14.948Z,99422.22
2022-12-20T18:01:43.157Z,99414.00
2022-12-20T18:04:13.410Z,99424.97
2022-12-20T18:06:42.174Z,99424.16
2022-12-20T18:09:20.376Z,99422.22
2022-12-20T18:11:48.097Z,99423.69
2022-12-20T18:14:15.455Z,99432.28
2022-12-20T18:16:42.712Z,99426.78
2022-12-20T18:19:16.157Z,99416.63
2022-12-20T18:21:43.750Z,99423.59
2022-12-20T18:24:15.964Z,99422.34
2022-12-20T18:26:43.525Z,99422.34
2022-12-20T18:29:10.836Z,99418.78
2022-12-20T18:31:38.224Z,99414.09
2022-12-20T18:34:05.118Z,99415.22
2022-12-20T18:36:35.880Z,99427.00
2022-12-20T18:39:05.681Z,99419.59
2022-12-20T18:41:32.859Z,99434.13
2022-12-20T18:44:01.752Z,99422.78
2022-12-20T18:46:29.862Z,99427.91
2022-12-20T18:48:58.930Z,99415.81
2022-12-20T18:51:28.627Z,99408.03
2022-12-20T18:53:57.309Z,99393.63
2022-12-20T18:56:27.101Z,99399.13
2022-12-20T18:58:53.725Z,99401.84
2022-12-20T19:01:24.342Z,99400.72
2022-12-20T19:03:51.979Z,99403.47
2022-12-20T19:06:19.852Z,99394.88
2022-12-20T19:08:47.469Z,99400.03
2022-12-20T19:11:17.038Z,99391.81
2022-12-20T19:13:45.258Z,99385.50
2022-12-20T19:16:15.691Z,99395.69
2022-12-20T19:18:43.460Z,99392.25
2022-12-20T19:21:10.032Z,99399.13
2022-12-20T19:23:38.661Z,99396.03
2022-12-20T19:26:08.124Z,99393.28
2022-12-20T19:28:35.889Z,99396.81
2022-12-20T19:31:21.060Z,99393.72
2022-12-20T19:33:48.636Z,99396.81
2022-12-20T19:36:16.578Z,99401.16
2022-12-20T19:38:47.626Z,99391.34
2022-12-20T19:41:14.763Z,99393.63
2022-12-20T19:43:42.161Z,99391.56
2022-12-20T19:46:12.314Z,99384.16
2022-12-20T19:48:39.116Z,99397.50
2022-12-20T19:51:10.272Z,99390.41
2022-12-20T19:53:40.803Z,99387.22
2022-12-20T19:56:08.754Z,99392.25
2022-12-20T19:58:36.611Z,99397.63
2022-12-20T20:01:08.448Z,99395.69
2022-12-20T20:03:36.751Z,99390.19
2022-12-20T20:06:04.843Z,99388.59
2022-12-20T20:08:32.603Z,99381.50
2022-12-20T20:11:05.336Z,99394.06
2022-12-20T20:13:35.777Z,99397.28
2022-12-20T20:16:03.948Z,99378.53
2022-12-20T20:18:36.280Z,99374.19
2022-12-20T20:21:13.648Z,99380.84
2022-12-20T20:23:40.376Z,99363.19
2022-12-20T20:26:13.836Z,99358.06
2022-12-20T20:28:44.934Z,99362.75
2022-12-20T20:31:14.707Z,99364.38
2022-12-20T20:33:42.288Z,99365.50
2022-12-20T20:36:13.329Z,99360.00
2022-12-20T20:38:42.558Z,99364.38
2022-12-20T20:41:10.101Z,99362.88
2022-12-20T20:43:38.275Z,99361.38
2022-12-20T20:46:07.591Z,99363.31
2022-12-20T20:48:35.371Z,99358.28
2022-12-20T20:51:02.190Z,99348.09
2022-12-20T20:53:33.447Z,99354.03
2022-12-20T20:56:05.054Z,99355.66
2022-12-20T20:58:32.909Z,99356.47
2022-12-20T21:01:01.546Z,99338.75
2022-12-20T21:03:29.984Z,99340.31
2022-12-20T21:08:43.855Z,99359.28
2022-12-20T21:11:11.048Z,99345.13
2022-12-20T21:13:38.660Z,99357.22
2022-12-20T21:16:12.518Z,99363.88
2022-12-20T21:18:40.037Z,99354.50
2022-12-20T21:21:08.855Z,99352.09
2022-12-20T21:23:35.600Z,99346.72
2022-12-20T21:26:03.628Z,99341.25
2022-12-20T21:28:31.641Z,99339.28
2022-12-20T21:31:00.289Z,99338.94
2022-12-20T21:33:27.403Z,99336.66
2022-12-20T21:36:05.451Z,99341.81
2022-12-20T21:38:32.403Z,99344.19
2022-12-20T21:41:04.491Z,99344.19
2022-12-20T21:43:32.489Z,99339.16
2022-12-20T21:46:00.840Z,99329.34
2022-12-20T21:48:27.704Z,99339.16
2022-12-20T21:51:11.958Z,99338.47
2022-12-20T21:53:44.894Z,99339.25
2022-12-20T21:56:12.823Z,99332.16
2022-12-20T21:58:39.954Z,99328.16
2022-12-20T22:01:08.313Z,99318.00
2022-12-20T22:03:36.050Z,99313.56
2022-12-20T22:06:03.563Z,99329.56
2022-12-20T22:08:31.821Z,99316.53
2022-12-20T22:11:12.909Z,99315.72
2022-12-20T22:13:41.987Z,99313.31
2022-12-20T22:16:10.795Z,99302.81
2022-12-20T22:18:39.185Z,99294.09
2022-12-20T22:21:07.653Z,99290.66
2022-12-20T22:23:34.365Z,99291.03
2022-12-20T22:26:06.845Z,99290.22
2022-12-20T22:28:34.055Z,99284.72
2022-12-20T22:31:00.813Z,99285.53
2022-12-20T22:33:33.291Z,99276.13
2022-12-20T22:36:00.862Z,99279.34
2022-12-20T22:38:28.498Z,99273.88
2022-12-20T22:40:58.920Z,99274.66
2022-12-20T22:43:26.123Z,99271.44
2022-12-20T22:45:57.444Z,99260.47
2022-12-20T22:48:45.558Z,99279.81
2022-12-20T22:51:20.642Z,99267.75
2022-12-20T22:53:48.062Z,99267.75
2022-12-20T22:56:16.306Z,99266.19
2022-12-20T22:58:43.125Z,99262.28
2022-12-20T23:01:12.606Z,99271.69
2022-12-20T23:03:39.660Z,99261.84
2022-12-20T23:06:08.715Z,99274.31
2022-12-20T23:08:36.884Z,99272.25
2022-12-20T23:11:25.467Z,99274.66
2022-12-20T23:14:10.909Z,99270.06
2022-12-20T23:16:38.180Z,99275.66
2022-12-20T23:19:04.929Z,99271.69
2022-12-20T23:21:50.680Z,99266.97
2022-12-20T23:24:17.552Z,99266.19
2022-12-20T23:26:44.491Z,99275.56
2022-12-20T23:29:14.207Z,99270.75
2022-12-20T23:31:41.088Z,99274.66
2022-12-20T23:34:08.170Z,99265.28
2022-12-20T23:36:34.893Z,99276.38
2022-12-20T23:39:01.897Z,99258.41
2022-12-20T23:41:28.798Z,99259.91
2022-12-20T23:43:56.187Z,99259.78
2022-12-20T23:46:23.771Z,99257.28
2022-12-20T23:48:51.925Z,99272.06
2022-12-20T23:51:19.428Z,99259.34
2022-12-20T23:53:46.083Z,99243.25
2022-12-20T23:56:17.817Z,99243.13
2022-12-20T23:58:46.084Z,99245.00
